sensor_id;sensor_type;location;lat;lon;timestamp;P1;durP1;ratioP1;P2;durP2;ratioP2
6850;SDS011;3464;42.728;23.296;2022-08-01T00:02:13;13.77;;;7.40;;
6850;SDS011;3464;42.728;23.296;2022-08-01T00:05:03;15.60;;;8.70;;
6850;SDS011;3464;42.728;23.296;2022-08-01T00:07:52;14.70;;;9.00;;
6850;SDS011;3464;42.728;23.296;2022-08-01T00:10:42;15.67;;;9.10;;
6850;SDS011;3464;42.728;23.296;2022-08-01T00:13:31;17.27;;;9.63;;
6850;SDS011;3464;42.728;23.296;2022-08-01T00:16:21;19.20;;;9.50;;
6850;SDS011;3464;42.728;23.296;2022-08-01T00:19:11;15.80;;;10.03;;
6850;SDS011;3464;42.728;23.296;2022-08-01T00:22:00;16.00;;;9.37;;
6850;SDS011;3464;42.728;23.296;2022-08-01T00:24:50;16.83;;;10.47;;
6850;SDS011;3464;42.728;23.296;2022-08-01T00:27:39;17.00;;;10.53;;
6850;SDS011;3464;42.728;23.296;2022-08-01T00:30:28;17.17;;;10.40;;
6850;SDS011;3464;42.728;23.296;2022-08-01T00:33:18;16.43;;;10.57;;
6850;SDS011;3464;42.728;23.296;2022-08-01T00:36:07;14.70;;;9.37;;
6850;SDS011;3464;42.728;23.296;2022-08-01T00:38:57;16.80;;;9.73;;
6850;SDS011;3464;42.728;23.296;2022-08-01T00:41:46;14.77;;;9.20;;
6850;SDS011;3464;42.728;23.296;2022-08-01T00:44:36;17.60;;;8.80;;
6850;SDS011;3464;42.728;23.296;2022-08-01T00:47:25;19.07;;;8.33;;
6850;SDS011;3464;42.728;23.296;2022-08-01T00:50:15;18.70;;;9.77;;
6850;SDS011;3464;42.728;23.296;2022-08-01T00:53:04;15.37;;;8.90;;
6850;SDS011;3464;42.728;23.296;2022-08-01T00:55:54;15.20;;;8.90;;
6850;SDS011;3464;42.728;23.296;2022-08-01T00:58:43;15.10;;;9.37;;
6850;SDS011;3464;42.728;23.296;2022-08-01T01:01:33;15.80;;;9.00;;
6850;SDS011;3464;42.728;23.296;2022-08-01T01:04:23;14.70;;;8.50;;
6850;SDS011;3464;42.728;23.296;2022-08-01T01:07:15;17.20;;;8.90;;
6850;SDS011;3464;42.728;23.296;2022-08-01T01:10:21;15.83;;;8.83;;
6850;SDS011;3464;42.728;23.296;2022-08-01T01:13:11;15.27;;;8.63;;
6850;SDS011;3464;42.728;23.296;2022-08-01T01:16:05;15.10;;;8.77;;
6850;SDS011;3464;42.728;23.296;2022-08-01T01:18:54;14.13;;;8.40;;
6850;SDS011;3464;42.728;23.296;2022-08-01T01:25:04;14.50;;;7.13;;
6850;SDS011;3464;42.728;23.296;2022-08-01T01:28:13;15.40;;;7.70;;
6850;SDS011;3464;42.728;23.296;2022-08-01T01:31:06;12.87;;;7.60;;
6850;SDS011;3464;42.728;23.296;2022-08-01T01:33:56;16.20;;;7.40;;
6850;SDS011;3464;42.728;23.296;2022-08-01T01:36:45;12.60;;;6.70;;
6850;SDS011;3464;42.728;23.296;2022-08-01T01:39:35;12.90;;;6.30;;
6850;SDS011;3464;42.728;23.296;2022-08-01T01:42:24;11.70;;;5.90;;
6850;SDS011;3464;42.728;23.296;2022-08-01T01:45:14;13.13;;;6.07;;
6850;SDS011;3464;42.728;23.296;2022-08-01T01:48:05;13.33;;;5.60;;
6850;SDS011;3464;42.728;23.296;2022-08-01T01:50:54;12.80;;;5.03;;
6850;SDS011;3464;42.728;23.296;2022-08-01T01:53:43;13.93;;;5.70;;
6850;SDS011;3464;42.728;23.296;2022-08-01T01:56:33;15.63;;;5.90;;
6850;SDS011;3464;42.728;23.296;2022-08-01T01:59:24;11.67;;;5.20;;
6850;SDS011;3464;42.728;23.296;2022-08-01T02:02:12;12.43;;;5.50;;
6850;SDS011;3464;42.728;23.296;2022-08-01T02:05:01;13.90;;;5.77;;
6850;SDS011;3464;42.728;23.296;2022-08-01T02:07:51;11.90;;;5.80;;
6850;SDS011;3464;42.728;23.296;2022-08-01T02:10:40;12.70;;;5.57;;
6850;SDS011;3464;42.728;23.296;2022-08-01T02:13:36;12.97;;;6.00;;
6850;SDS011;3464;42.728;23.296;2022-08-01T02:16:25;12.20;;;5.83;;
6850;SDS011;3464;42.728;23.296;2022-08-01T02:19:14;14.63;;;5.90;;
6850;SDS011;3464;42.728;23.296;2022-08-01T02:22:06;12.83;;;5.80;;
6850;SDS011;3464;42.728;23.296;2022-08-01T02:25:01;12.70;;;5.83;;
6850;SDS011;3464;42.728;23.296;2022-08-01T02:28:03;12.17;;;6.40;;
6850;SDS011;3464;42.728;23.296;2022-08-01T02:31:00;18.93;;;6.00;;
6850;SDS011;3464;42.728;23.296;2022-08-01T02:33:52;11.90;;;5.27;;
6850;SDS011;3464;42.728;23.296;2022-08-01T02:36:38;12.43;;;5.80;;
6850;SDS011;3464;42.728;23.296;2022-08-01T02:39:28;12.50;;;5.67;;
6850;SDS011;3464;42.728;23.296;2022-08-01T02:42:17;13.63;;;5.50;;
6850;SDS011;3464;42.728;23.296;2022-08-01T02:45:07;10.60;;;4.67;;
6850;SDS011;3464;42.728;23.296;2022-08-01T02:47:58;12.03;;;5.50;;
6850;SDS011;3464;42.728;23.296;2022-08-01T02:50:49;18.23;;;6.30;;
6850;SDS011;3464;42.728;23.296;2022-08-01T02:53:39;12.60;;;6.33;;
6850;SDS011;3464;42.728;23.296;2022-08-01T02:56:29;13.73;;;6.60;;
6850;SDS011;3464;42.728;23.296;2022-08-01T02:59:18;13.30;;;6.67;;
6850;SDS011;3464;42.728;23.296;2022-08-01T03:02:07;15.33;;;7.23;;
6850;SDS011;3464;42.728;23.296;2022-08-01T03:04:57;13.70;;;7.23;;
6850;SDS011;3464;42.728;23.296;2022-08-01T03:07:46;18.60;;;7.47;;
6850;SDS011;3464;42.728;23.296;2022-08-01T03:10:37;13.13;;;7.00;;
6850;SDS011;3464;42.728;23.296;2022-08-01T03:13:25;15.27;;;7.00;;
6850;SDS011;3464;42.728;23.296;2022-08-01T03:16:15;13.13;;;6.60;;
6850;SDS011;3464;42.728;23.296;2022-08-01T03:19:05;17.47;;;7.13;;
6850;SDS011;3464;42.728;23.296;2022-08-01T03:21:54;14.37;;;7.00;;
6850;SDS011;3464;42.728;23.296;2022-08-01T03:24:44;15.27;;;6.80;;
6850;SDS011;3464;42.728;23.296;2022-08-01T03:27:33;13.87;;;7.73;;
6850;SDS011;3464;42.728;23.296;2022-08-01T03:30:24;15.90;;;6.60;;
6850;SDS011;3464;42.728;23.296;2022-08-01T03:33:13;17.73;;;7.43;;
6850;SDS011;3464;42.728;23.296;2022-08-01T03:36:03;15.37;;;7.50;;
6850;SDS011;3464;42.728;23.296;2022-08-01T03:38:52;16.13;;;7.03;;
6850;SDS011;3464;42.728;23.296;2022-08-01T03:41:43;17.83;;;7.57;;
6850;SDS011;3464;42.728;23.296;2022-08-01T03:44:31;17.00;;;7.60;;
6850;SDS011;3464;42.728;23.296;2022-08-01T03:47:21;14.77;;;7.60;;
6850;SDS011;3464;42.728;23.296;2022-08-01T03:50:11;18.27;;;7.30;;
6850;SDS011;3464;42.728;23.296;2022-08-01T03:53:01;14.60;;;7.07;;
6850;SDS011;3464;42.728;23.296;2022-08-01T03:55:50;16.67;;;6.70;;
6850;SDS011;3464;42.728;23.296;2022-08-01T03:58:41;18.00;;;6.50;;
6850;SDS011;3464;42.728;23.296;2022-08-01T04:01:31;16.70;;;6.00;;
6850;SDS011;3464;42.728;23.296;2022-08-01T04:04:21;16.27;;;5.77;;
6850;SDS011;3464;42.728;23.296;2022-08-01T04:10:08;14.93;;;5.50;;
6850;SDS011;3464;42.728;23.296;2022-08-01T04:12:57;15.63;;;5.47;;
6850;SDS011;3464;42.728;23.296;2022-08-01T04:15:47;14.03;;;5.87;;
6850;SDS011;3464;42.728;23.296;2022-08-01T04:18:36;20.30;;;7.13;;
6850;SDS011;3464;42.728;23.296;2022-08-01T04:21:26;18.40;;;6.67;;
6850;SDS011;3464;42.728;23.296;2022-08-01T04:24:16;15.37;;;5.60;;
6850;SDS011;3464;42.728;23.296;2022-08-01T04:27:06;17.53;;;5.93;;
6850;SDS011;3464;42.728;23.296;2022-08-01T04:29:56;14.83;;;6.10;;
6850;SDS011;3464;42.728;23.296;2022-08-01T04:32:46;17.60;;;6.10;;
6850;SDS011;3464;42.728;23.296;2022-08-01T04:35:36;15.80;;;6.00;;
6850;SDS011;3464;42.728;23.296;2022-08-01T04:38:25;14.67;;;6.03;;
6850;SDS011;3464;42.728;23.296;2022-08-01T04:41:14;16.13;;;6.07;;
6850;SDS011;3464;42.728;23.296;2022-08-01T04:44:04;15.57;;;5.90;;
6850;SDS011;3464;42.728;23.296;2022-08-01T04:46:54;14.83;;;5.10;;
6850;SDS011;3464;42.728;23.296;2022-08-01T04:49:43;14.13;;;6.17;;
6850;SDS011;3464;42.728;23.296;2022-08-01T04:52:34;16.50;;;5.73;;
6850;SDS011;3464;42.728;23.296;2022-08-01T04:55:23;17.00;;;5.87;;
6850;SDS011;3464;42.728;23.296;2022-08-01T04:58:14;15.10;;;6.00;;
6850;SDS011;3464;42.728;23.296;2022-08-01T05:01:02;14.33;;;5.67;;
6850;SDS011;3464;42.728;23.296;2022-08-01T05:03:52;19.00;;;5.40;;
6850;SDS011;3464;42.728;23.296;2022-08-01T05:06:42;15.83;;;5.30;;
6850;SDS011;3464;42.728;23.296;2022-08-01T05:09:31;13.50;;;4.97;;
6850;SDS011;3464;42.728;23.296;2022-08-01T05:12:21;13.70;;;4.80;;
6850;SDS011;3464;42.728;23.296;2022-08-01T05:15:10;13.60;;;5.00;;
6850;SDS011;3464;42.728;23.296;2022-08-01T05:18:00;15.57;;;5.20;;
6850;SDS011;3464;42.728;23.296;2022-08-01T05:20:49;12.20;;;4.87;;
6850;SDS011;3464;42.728;23.296;2022-08-01T05:23:38;15.30;;;4.87;;
6850;SDS011;3464;42.728;23.296;2022-08-01T05:26:28;14.43;;;5.23;;
6850;SDS011;3464;42.728;23.296;2022-08-01T05:29:18;16.30;;;5.10;;
6850;SDS011;3464;42.728;23.296;2022-08-01T05:32:08;14.77;;;4.93;;
6850;SDS011;3464;42.728;23.296;2022-08-01T05:34:59;13.27;;;4.47;;
6850;SDS011;3464;42.728;23.296;2022-08-01T05:37:48;15.40;;;4.80;;
6850;SDS011;3464;42.728;23.296;2022-08-01T05:40:37;16.53;;;4.77;;
6850;SDS011;3464;42.728;23.296;2022-08-01T05:43:27;13.37;;;4.33;;
6850;SDS011;3464;42.728;23.296;2022-08-01T05:46:17;13.93;;;3.80;;
6850;SDS011;3464;42.728;23.296;2022-08-01T05:49:06;12.33;;;4.13;;
6850;SDS011;3464;42.728;23.296;2022-08-01T05:51:56;13.17;;;4.00;;
6850;SDS011;3464;42.728;23.296;2022-08-01T05:54:46;12.33;;;3.70;;
6850;SDS011;3464;42.728;23.296;2022-08-01T05:57:36;12.33;;;3.20;;
6850;SDS011;3464;42.728;23.296;2022-08-01T06:00:25;16.07;;;3.30;;
6850;SDS011;3464;42.728;23.296;2022-08-01T06:03:15;13.70;;;3.43;;
6850;SDS011;3464;42.728;23.296;2022-08-01T06:06:04;11.90;;;3.17;;
6850;SDS011;3464;42.728;23.296;2022-08-01T06:08:54;21.10;;;3.33;;
6850;SDS011;3464;42.728;23.296;2022-08-01T06:11:43;12.40;;;3.23;;
6850;SDS011;3464;42.728;23.296;2022-08-01T06:14:33;14.63;;;3.17;;
6850;SDS011;3464;42.728;23.296;2022-08-01T06:17:22;11.40;;;3.10;;
6850;SDS011;3464;42.728;23.296;2022-08-01T06:20:12;13.93;;;3.33;;
6850;SDS011;3464;42.728;23.296;2022-08-01T06:23:02;12.57;;;2.90;;
6850;SDS011;3464;42.728;23.296;2022-08-01T06:25:52;11.20;;;3.07;;
6850;SDS011;3464;42.728;23.296;2022-08-01T06:28:41;13.27;;;2.80;;
6850;SDS011;3464;42.728;23.296;2022-08-01T06:31:30;10.40;;;2.77;;
6850;SDS011;3464;42.728;23.296;2022-08-01T06:34:20;12.33;;;3.07;;
6850;SDS011;3464;42.728;23.296;2022-08-01T06:37:09;13.17;;;3.07;;
6850;SDS011;3464;42.728;23.296;2022-08-01T06:40:00;10.60;;;2.63;;
6850;SDS011;3464;42.728;23.296;2022-08-01T06:42:50;11.13;;;2.90;;
6850;SDS011;3464;42.728;23.296;2022-08-01T06:45:41;11.00;;;2.80;;
6850;SDS011;3464;42.728;23.296;2022-08-01T06:48:30;10.73;;;2.80;;
6850;SDS011;3464;42.728;23.296;2022-08-01T06:51:19;12.07;;;3.00;;
6850;SDS011;3464;42.728;23.296;2022-08-01T06:54:09;11.40;;;2.80;;
6850;SDS011;3464;42.728;23.296;2022-08-01T06:56:59;13.37;;;3.30;;
6850;SDS011;3464;42.728;23.296;2022-08-01T06:59:49;11.27;;;3.10;;
6850;SDS011;3464;42.728;23.296;2022-08-01T07:02:38;14.10;;;3.10;;
6850;SDS011;3464;42.728;23.296;2022-08-01T07:05:28;12.40;;;3.07;;
6850;SDS011;3464;42.728;23.296;2022-08-01T07:08:17;14.67;;;2.77;;
6850;SDS011;3464;42.728;23.296;2022-08-01T07:11:07;9.50;;;2.50;;
6850;SDS011;3464;42.728;23.296;2022-08-01T07:13:56;10.93;;;3.10;;
6850;SDS011;3464;42.728;23.296;2022-08-01T07:16:46;13.83;;;2.73;;
6850;SDS011;3464;42.728;23.296;2022-08-01T07:19:35;14.30;;;2.70;;
6850;SDS011;3464;42.728;23.296;2022-08-01T07:22:25;10.97;;;2.90;;
6850;SDS011;3464;42.728;23.296;2022-08-01T07:25:15;10.73;;;2.73;;
6850;SDS011;3464;42.728;23.296;2022-08-01T07:28:04;10.80;;;2.63;;
6850;SDS011;3464;42.728;23.296;2022-08-01T07:30:54;11.20;;;2.40;;
6850;SDS011;3464;42.728;23.296;2022-08-01T07:33:43;10.50;;;2.93;;
6850;SDS011;3464;42.728;23.296;2022-08-01T07:36:32;11.17;;;2.90;;
6850;SDS011;3464;42.728;23.296;2022-08-01T07:39:22;10.87;;;2.90;;
6850;SDS011;3464;42.728;23.296;2022-08-01T07:42:12;11.63;;;3.27;;
6850;SDS011;3464;42.728;23.296;2022-08-01T07:45:01;12.80;;;3.10;;
6850;SDS011;3464;42.728;23.296;2022-08-01T07:47:51;11.83;;;2.63;;
6850;SDS011;3464;42.728;23.296;2022-08-01T07:50:45;14.27;;;3.10;;
6850;SDS011;3464;42.728;23.296;2022-08-01T07:53:36;13.13;;;3.33;;
6850;SDS011;3464;42.728;23.296;2022-08-01T07:56:25;12.93;;;3.13;;
6850;SDS011;3464;42.728;23.296;2022-08-01T07:59:15;15.43;;;3.43;;
6850;SDS011;3464;42.728;23.296;2022-08-01T08:02:04;12.60;;;3.17;;
6850;SDS011;3464;42.728;23.296;2022-08-01T08:04:54;13.50;;;3.17;;
6850;SDS011;3464;42.728;23.296;2022-08-01T08:07:44;10.00;;;3.27;;
6850;SDS011;3464;42.728;23.296;2022-08-01T08:10:34;12.50;;;3.50;;
6850;SDS011;3464;42.728;23.296;2022-08-01T08:13:23;14.03;;;3.03;;
6850;SDS011;3464;42.728;23.296;2022-08-01T08:16:13;12.23;;;3.17;;
6850;SDS011;3464;42.728;23.296;2022-08-01T08:19:02;11.70;;;3.57;;
6850;SDS011;3464;42.728;23.296;2022-08-01T08:21:51;11.40;;;3.33;;
6850;SDS011;3464;42.728;23.296;2022-08-01T08:24:41;11.83;;;3.60;;
6850;SDS011;3464;42.728;23.296;2022-08-01T08:27:30;12.30;;;3.10;;
6850;SDS011;3464;42.728;23.296;2022-08-01T08:30:20;11.63;;;3.00;;
6850;SDS011;3464;42.728;23.296;2022-08-01T08:33:10;13.23;;;3.40;;
6850;SDS011;3464;42.728;23.296;2022-08-01T08:35:59;12.30;;;3.33;;
6850;SDS011;3464;42.728;23.296;2022-08-01T08:38:48;11.00;;;3.20;;
6850;SDS011;3464;42.728;23.296;2022-08-01T08:41:38;12.63;;;3.50;;
6850;SDS011;3464;42.728;23.296;2022-08-01T08:44:27;14.33;;;3.20;;
6850;SDS011;3464;42.728;23.296;2022-08-01T08:47:17;10.93;;;3.40;;
6850;SDS011;3464;42.728;23.296;2022-08-01T08:50:06;11.70;;;3.23;;
6850;SDS011;3464;42.728;23.296;2022-08-01T08:52:56;12.93;;;3.17;;
6850;SDS011;3464;42.728;23.296;2022-08-01T08:55:45;12.03;;;3.17;;
6850;SDS011;3464;42.728;23.296;2022-08-01T08:58:35;13.10;;;3.30;;
6850;SDS011;3464;42.728;23.296;2022-08-01T09:01:24;10.40;;;3.10;;
6850;SDS011;3464;42.728;23.296;2022-08-01T09:04:14;9.80;;;2.73;;
6850;SDS011;3464;42.728;23.296;2022-08-01T09:07:04;10.63;;;2.90;;
6850;SDS011;3464;42.728;23.296;2022-08-01T09:09:52;11.50;;;3.20;;
6850;SDS011;3464;42.728;23.296;2022-08-01T09:13:14;14.07;;;3.37;;
6850;SDS011;3464;42.728;23.296;2022-08-01T09:15:51;11.40;;;3.00;;
6850;SDS011;3464;42.728;23.296;2022-08-01T09:18:40;13.80;;;3.10;;
6850;SDS011;3464;42.728;23.296;2022-08-01T09:21:29;15.33;;;3.73;;
6850;SDS011;3464;42.728;23.296;2022-08-01T09:24:18;13.33;;;3.00;;
6850;SDS011;3464;42.728;23.296;2022-08-01T09:27:18;16.37;;;3.40;;
6850;SDS011;3464;42.728;23.296;2022-08-01T09:30:08;13.60;;;3.07;;
6850;SDS011;3464;42.728;23.296;2022-08-01T09:32:58;10.30;;;2.70;;
6850;SDS011;3464;42.728;23.296;2022-08-01T09:35:53;10.50;;;2.80;;
6850;SDS011;3464;42.728;23.296;2022-08-01T09:38:36;10.37;;;2.80;;
6850;SDS011;3464;42.728;23.296;2022-08-01T09:41:30;11.13;;;2.90;;
6850;SDS011;3464;42.728;23.296;2022-08-01T09:44:19;10.57;;;2.73;;
6850;SDS011;3464;42.728;23.296;2022-08-01T09:47:14;17.23;;;3.53;;
6850;SDS011;3464;42.728;23.296;2022-08-01T09:50:04;12.33;;;2.80;;
6850;SDS011;3464;42.728;23.296;2022-08-01T09:52:54;15.20;;;3.67;;
6850;SDS011;3464;42.728;23.296;2022-08-01T09:55:43;10.57;;;3.23;;
6850;SDS011;3464;42.728;23.296;2022-08-01T09:58:39;13.80;;;3.20;;
6850;SDS011;3464;42.728;23.296;2022-08-01T10:01:29;10.73;;;3.40;;
6850;SDS011;3464;42.728;23.296;2022-08-01T10:04:27;12.57;;;3.30;;
6850;SDS011;3464;42.728;23.296;2022-08-01T10:07:17;10.30;;;3.20;;
6850;SDS011;3464;42.728;23.296;2022-08-01T10:10:09;13.20;;;3.00;;
6850;SDS011;3464;42.728;23.296;2022-08-01T10:12:58;11.00;;;2.90;;
6850;SDS011;3464;42.728;23.296;2022-08-01T10:15:47;13.47;;;3.00;;
6850;SDS011;3464;42.728;23.296;2022-08-01T10:18:37;13.80;;;3.23;;
6850;SDS011;3464;42.728;23.296;2022-08-01T10:21:26;15.13;;;3.50;;
6850;SDS011;3464;42.728;23.296;2022-08-01T10:24:16;14.63;;;3.10;;
6850;SDS011;3464;42.728;23.296;2022-08-01T10:27:06;10.33;;;2.60;;
6850;SDS011;3464;42.728;23.296;2022-08-01T10:29:56;9.90;;;3.00;;
6850;SDS011;3464;42.728;23.296;2022-08-01T10:32:44;12.80;;;2.97;;
6850;SDS011;3464;42.728;23.296;2022-08-01T10:35:34;9.70;;;2.83;;
6850;SDS011;3464;42.728;23.296;2022-08-01T10:38:23;11.50;;;3.20;;
6850;SDS011;3464;42.728;23.296;2022-08-01T10:41:13;11.07;;;3.23;;
6850;SDS011;3464;42.728;23.296;2022-08-01T10:44:02;10.13;;;3.00;;
6850;SDS011;3464;42.728;23.296;2022-08-01T10:46:54;12.70;;;2.80;;
6850;SDS011;3464;42.728;23.296;2022-08-01T10:49:51;14.23;;;3.00;;
6850;SDS011;3464;42.728;23.296;2022-08-01T10:52:39;11.53;;;2.90;;
6850;SDS011;3464;42.728;23.296;2022-08-01T10:55:44;12.07;;;2.80;;
6850;SDS011;3464;42.728;23.296;2022-08-01T10:58:27;16.50;;;3.33;;
6850;SDS011;3464;42.728;23.296;2022-08-01T11:01:20;12.80;;;3.43;;
6850;SDS011;3464;42.728;23.296;2022-08-01T11:04:09;13.33;;;3.50;;
6850;SDS011;3464;42.728;23.296;2022-08-01T11:07:02;15.13;;;3.87;;
6850;SDS011;3464;42.728;23.296;2022-08-01T11:12:52;11.53;;;3.33;;
6850;SDS011;3464;42.728;23.296;2022-08-01T11:15:41;10.20;;;2.97;;
6850;SDS011;3464;42.728;23.296;2022-08-01T11:18:32;10.53;;;2.87;;
6850;SDS011;3464;42.728;23.296;2022-08-01T11:21:21;10.60;;;3.00;;
6850;SDS011;3464;42.728;23.296;2022-08-01T11:24:21;12.20;;;3.17;;
6850;SDS011;3464;42.728;23.296;2022-08-01T11:27:17;14.63;;;3.17;;
6850;SDS011;3464;42.728;23.296;2022-08-01T11:30:23;18.00;;;3.13;;
6850;SDS011;3464;42.728;23.296;2022-08-01T11:33:12;12.87;;;3.60;;
6850;SDS011;3464;42.728;23.296;2022-08-01T11:36:18;11.00;;;2.80;;
6850;SDS011;3464;42.728;23.296;2022-08-01T11:39:10;10.27;;;2.93;;
6850;SDS011;3464;42.728;23.296;2022-08-01T11:42:16;11.00;;;3.33;;
6850;SDS011;3464;42.728;23.296;2022-08-01T11:44:56;10.90;;;3.20;;
6850;SDS011;3464;42.728;23.296;2022-08-01T11:47:47;11.33;;;3.33;;
6850;SDS011;3464;42.728;23.296;2022-08-01T11:50:36;13.30;;;3.37;;
6850;SDS011;3464;42.728;23.296;2022-08-01T11:53:26;10.63;;;3.17;;
6850;SDS011;3464;42.728;23.296;2022-08-01T11:56:15;11.43;;;3.17;;
6850;SDS011;3464;42.728;23.296;2022-08-01T11:59:05;11.23;;;3.00;;
6850;SDS011;3464;42.728;23.296;2022-08-01T12:01:54;12.90;;;3.50;;
6850;SDS011;3464;42.728;23.296;2022-08-01T12:04:47;11.70;;;3.53;;
6850;SDS011;3464;42.728;23.296;2022-08-01T12:07:36;10.87;;;3.33;;
6850;SDS011;3464;42.728;23.296;2022-08-01T12:10:27;15.67;;;3.07;;
6850;SDS011;3464;42.728;23.296;2022-08-01T12:13:16;10.80;;;3.33;;
6850;SDS011;3464;42.728;23.296;2022-08-01T12:16:07;10.20;;;3.17;;
6850;SDS011;3464;42.728;23.296;2022-08-01T12:18:56;9.67;;;3.33;;
6850;SDS011;3464;42.728;23.296;2022-08-01T12:21:45;11.43;;;3.37;;
6850;SDS011;3464;42.728;23.296;2022-08-01T12:24:41;14.40;;;4.00;;
6850;SDS011;3464;42.728;23.296;2022-08-01T12:27:30;10.47;;;3.40;;
6850;SDS011;3464;42.728;23.296;2022-08-01T12:30:20;11.20;;;3.10;;
6850;SDS011;3464;42.728;23.296;2022-08-01T12:33:10;11.67;;;3.27;;
6850;SDS011;3464;42.728;23.296;2022-08-01T12:35:58;14.77;;;3.60;;
6850;SDS011;3464;42.728;23.296;2022-08-01T12:38:52;13.50;;;3.50;;
6850;SDS011;3464;42.728;23.296;2022-08-01T12:41:37;9.90;;;3.20;;
6850;SDS011;3464;42.728;23.296;2022-08-01T12:44:27;10.37;;;3.23;;
6850;SDS011;3464;42.728;23.296;2022-08-01T12:47:16;13.40;;;3.63;;
6850;SDS011;3464;42.728;23.296;2022-08-01T12:50:07;11.70;;;3.20;;
6850;SDS011;3464;42.728;23.296;2022-08-01T12:52:58;13.43;;;2.90;;
6850;SDS011;3464;42.728;23.296;2022-08-01T12:55:49;11.20;;;3.00;;
6850;SDS011;3464;42.728;23.296;2022-08-01T12:58:37;10.30;;;3.30;;
6850;SDS011;3464;42.728;23.296;2022-08-01T13:01:27;12.57;;;3.20;;
6850;SDS011;3464;42.728;23.296;2022-08-01T13:04:16;10.27;;;2.90;;
6850;SDS011;3464;42.728;23.296;2022-08-01T13:07:05;10.07;;;2.80;;
6850;SDS011;3464;42.728;23.296;2022-08-01T13:09:55;11.23;;;3.37;;
6850;SDS011;3464;42.728;23.296;2022-08-01T13:12:50;10.93;;;3.00;;
6850;SDS011;3464;42.728;23.296;2022-08-01T13:15:35;11.97;;;3.63;;
6850;SDS011;3464;42.728;23.296;2022-08-01T13:18:25;16.43;;;3.30;;
6850;SDS011;3464;42.728;23.296;2022-08-01T13:21:14;9.63;;;3.00;;
6850;SDS011;3464;42.728;23.296;2022-08-01T13:24:05;12.80;;;3.20;;
6850;SDS011;3464;42.728;23.296;2022-08-01T13:26:55;11.03;;;3.00;;
6850;SDS011;3464;42.728;23.296;2022-08-01T13:29:44;11.27;;;3.00;;
6850;SDS011;3464;42.728;23.296;2022-08-01T13:32:34;11.33;;;3.10;;
6850;SDS011;3464;42.728;23.296;2022-08-01T13:35:24;12.27;;;3.10;;
6850;SDS011;3464;42.728;23.296;2022-08-01T13:38:13;11.83;;;3.00;;
6850;SDS011;3464;42.728;23.296;2022-08-01T13:41:08;13.30;;;3.27;;
6850;SDS011;3464;42.728;23.296;2022-08-01T13:43:57;10.80;;;2.77;;
6850;SDS011;3464;42.728;23.296;2022-08-01T13:46:47;14.70;;;3.10;;
6850;SDS011;3464;42.728;23.296;2022-08-01T13:49:36;12.00;;;2.93;;
6850;SDS011;3464;42.728;23.296;2022-08-01T13:52:26;11.77;;;3.13;;
6850;SDS011;3464;42.728;23.296;2022-08-01T13:55:16;9.83;;;2.87;;
6850;SDS011;3464;42.728;23.296;2022-08-01T13:58:06;11.70;;;2.90;;
6850;SDS011;3464;42.728;23.296;2022-08-01T14:00:55;9.50;;;2.93;;
6850;SDS011;3464;42.728;23.296;2022-08-01T14:03:45;10.47;;;2.90;;
6850;SDS011;3464;42.728;23.296;2022-08-01T14:06:35;10.67;;;3.10;;
6850;SDS011;3464;42.728;23.296;2022-08-01T14:09:25;14.57;;;3.03;;
6850;SDS011;3464;42.728;23.296;2022-08-01T14:12:15;13.80;;;3.30;;
6850;SDS011;3464;42.728;23.296;2022-08-01T14:15:05;9.97;;;2.93;;
6850;SDS011;3464;42.728;23.296;2022-08-01T14:17:54;9.20;;;2.60;;
6850;SDS011;3464;42.728;23.296;2022-08-01T14:20:43;11.77;;;2.70;;
6850;SDS011;3464;42.728;23.296;2022-08-01T14:23:33;11.80;;;3.00;;
6850;SDS011;3464;42.728;23.296;2022-08-01T14:26:23;13.20;;;3.00;;
6850;SDS011;3464;42.728;23.296;2022-08-01T14:29:12;10.03;;;2.80;;
6850;SDS011;3464;42.728;23.296;2022-08-01T14:32:02;11.00;;;3.13;;
6850;SDS011;3464;42.728;23.296;2022-08-01T14:34:51;9.20;;;2.40;;
6850;SDS011;3464;42.728;23.296;2022-08-01T14:37:42;13.03;;;3.20;;
6850;SDS011;3464;42.728;23.296;2022-08-01T14:40:31;11.60;;;3.10;;
6850;SDS011;3464;42.728;23.296;2022-08-01T14:43:21;12.10;;;3.27;;
6850;SDS011;3464;42.728;23.296;2022-08-01T14:46:11;11.50;;;2.93;;
6850;SDS011;3464;42.728;23.296;2022-08-01T14:49:00;10.17;;;3.00;;
6850;SDS011;3464;42.728;23.296;2022-08-01T14:51:50;10.10;;;2.60;;
6850;SDS011;3464;42.728;23.296;2022-08-01T14:54:39;10.17;;;2.60;;
6850;SDS011;3464;42.728;23.296;2022-08-01T14:57:29;11.43;;;3.00;;
6850;SDS011;3464;42.728;23.296;2022-08-01T15:00:19;10.97;;;2.70;;
6850;SDS011;3464;42.728;23.296;2022-08-01T15:03:09;11.10;;;2.70;;
6850;SDS011;3464;42.728;23.296;2022-08-01T15:05:58;10.73;;;2.80;;
6850;SDS011;3464;42.728;23.296;2022-08-01T15:08:48;10.37;;;2.70;;
6850;SDS011;3464;42.728;23.296;2022-08-01T15:11:37;10.27;;;2.70;;
6850;SDS011;3464;42.728;23.296;2022-08-01T15:14:26;9.87;;;2.57;;
6850;SDS011;3464;42.728;23.296;2022-08-01T15:17:22;13.93;;;2.63;;
6850;SDS011;3464;42.728;23.296;2022-08-01T15:20:10;12.60;;;2.90;;
6850;SDS011;3464;42.728;23.296;2022-08-01T15:23:00;13.37;;;2.90;;
6850;SDS011;3464;42.728;23.296;2022-08-01T15:25:49;14.53;;;2.53;;
6850;SDS011;3464;42.728;23.296;2022-08-01T15:28:38;9.80;;;2.57;;
6850;SDS011;3464;42.728;23.296;2022-08-01T15:31:28;10.03;;;2.70;;
6850;SDS011;3464;42.728;23.296;2022-08-01T15:34:17;13.43;;;2.67;;
6850;SDS011;3464;42.728;23.296;2022-08-01T15:37:07;13.10;;;3.13;;
6850;SDS011;3464;42.728;23.296;2022-08-01T15:39:56;14.80;;;2.80;;
6850;SDS011;3464;42.728;23.296;2022-08-01T15:42:46;9.70;;;2.57;;
6850;SDS011;3464;42.728;23.296;2022-08-01T15:45:37;12.40;;;2.40;;
6850;SDS011;3464;42.728;23.296;2022-08-01T15:48:27;16.30;;;2.60;;
6850;SDS011;3464;42.728;23.296;2022-08-01T15:51:16;11.40;;;2.80;;
6850;SDS011;3464;42.728;23.296;2022-08-01T15:54:06;10.93;;;3.53;;
6850;SDS011;3464;42.728;23.296;2022-08-01T15:56:55;9.87;;;2.30;;
6850;SDS011;3464;42.728;23.296;2022-08-01T15:59:46;9.30;;;2.40;;
6850;SDS011;3464;42.728;23.296;2022-08-01T16:02:36;9.77;;;2.30;;
6850;SDS011;3464;42.728;23.296;2022-08-01T16:05:25;9.20;;;2.30;;
6850;SDS011;3464;42.728;23.296;2022-08-01T16:08:16;9.80;;;2.60;;
6850;SDS011;3464;42.728;23.296;2022-08-01T16:11:05;11.10;;;2.57;;
6850;SDS011;3464;42.728;23.296;2022-08-01T16:13:57;9.97;;;2.47;;
6850;SDS011;3464;42.728;23.296;2022-08-01T16:16:47;9.57;;;2.30;;
6850;SDS011;3464;42.728;23.296;2022-08-01T16:19:36;9.63;;;2.73;;
6850;SDS011;3464;42.728;23.296;2022-08-01T16:22:26;10.30;;;2.37;;
6850;SDS011;3464;42.728;23.296;2022-08-01T16:25:17;10.37;;;2.50;;
6850;SDS011;3464;42.728;23.296;2022-08-01T16:28:06;10.23;;;2.27;;
6850;SDS011;3464;42.728;23.296;2022-08-01T16:30:56;8.70;;;2.10;;
6850;SDS011;3464;42.728;23.296;2022-08-01T16:33:45;9.50;;;2.20;;
6850;SDS011;3464;42.728;23.296;2022-08-01T16:36:34;11.33;;;2.30;;
6850;SDS011;3464;42.728;23.296;2022-08-01T16:39:24;8.77;;;2.03;;
6850;SDS011;3464;42.728;23.296;2022-08-01T16:42:13;13.87;;;2.20;;
6850;SDS011;3464;42.728;23.296;2022-08-01T16:45:03;9.80;;;2.60;;
6850;SDS011;3464;42.728;23.296;2022-08-01T16:47:53;10.00;;;2.20;;
6850;SDS011;3464;42.728;23.296;2022-08-01T16:50:43;8.90;;;2.23;;
6850;SDS011;3464;42.728;23.296;2022-08-01T16:53:33;10.63;;;2.30;;
6850;SDS011;3464;42.728;23.296;2022-08-01T16:56:24;12.77;;;2.40;;
6850;SDS011;3464;42.728;23.296;2022-08-01T16:59:13;10.53;;;2.40;;
6850;SDS011;3464;42.728;23.296;2022-08-01T17:02:03;10.07;;;2.33;;
6850;SDS011;3464;42.728;23.296;2022-08-01T17:04:53;10.93;;;2.57;;
6850;SDS011;3464;42.728;23.296;2022-08-01T17:07:42;10.10;;;2.70;;
6850;SDS011;3464;42.728;23.296;2022-08-01T17:10:32;8.90;;;2.13;;
6850;SDS011;3464;42.728;23.296;2022-08-01T17:13:21;12.67;;;2.40;;
6850;SDS011;3464;42.728;23.296;2022-08-01T17:16:11;9.93;;;2.47;;